Time;durP1;ratioP1;P1;durP2;ratioP2;P2;SDS_P1;SDS_P2;PMS_P1;PMS_P2;Temp;Humidity;BMP_temperature;BMP_pressure;BME280_temperature;BME280_humidity;BME280_pressure;Samples;Min_cycle;Max_cycle;Signal;HPM_P1;HPM_P2
2022/02/21 00:01:54;;;;;;;3.65;1.77;;;;;;;2.61;73.18;98134.69;5062099;28;20028;-61
2022/02/21 00:04:20;;;;;;;5.85;2.33;;;;;;;2.70;73.12;98137.97;5061921;28;20070;-60
2022/02/21 00:06:46;;;;;;;3.95;2.35;;;;;;;2.58;72.83;98139.00;5062036;28;20024;-60
2022/02/21 00:09:13;;;;;;;3.63;1.95;;;;;;;2.62;73.39;98144.06;5060602;28;20012;-60
2022/02/21 00:11:39;;;;;;;6.68;2.47;;;;;;;2.54;73.29;98126.31;5062393;28;20025;-60
2022/02/21 00:14:05;;;;;;;3.90;1.73;;;;;;;2.49;73.05;98138.28;5061660;28;20092;-60
2022/02/21 00:16:31;;;;;;;3.05;1.80;;;;;;;2.58;73.58;98149.22;5061911;28;20035;-60
2022/02/21 00:18:56;;;;;;;2.63;2.00;;;;;;;2.65;73.13;98147.44;5061813;28;20024;-61
2022/02/21 00:21:22;;;;;;;4.03;1.67;;;;;;;2.52;73.10;98144.22;5061498;28;20217;-60
2022/02/21 00:23:47;;;;;;;4.45;1.95;;;;;;;2.56;73.40;98137.34;5062088;28;20059;-60
2022/02/21 00:26:14;;;;;;;3.47;1.90;;;;;;;2.63;73.24;98140.66;5061694;28;20032;-60
2022/02/21 00:28:41;;;;;;;4.22;2.17;;;;;;;2.56;73.34;98140.72;5061848;28;20025;-60
2022/02/21 00:31:06;;;;;;;4.38;2.00;;;;;;;2.52;73.35;98144.22;5061588;28;20035;-61
2022/02/21 00:33:32;;;;;;;2.97;1.77;;;;;;;2.61;73.41;98145.78;5064440;28;20037;-60
2022/02/21 00:35:57;;;;;;;5.70;2.10;;;;;;;2.48;73.55;98139.16;5065883;28;20264;-60
2022/02/21 00:38:23;;;;;;;3.17;1.98;;;;;;;2.53;74.09;98147.59;5065992;28;20028;-60
2022/02/21 00:40:49;;;;;;;3.45;2.30;;;;;;;2.48;74.62;98141.69;5066229;28;20052;-60
2022/02/21 00:43:14;;;;;;;6.63;2.50;;;;;;;2.53;74.61;98129.72;5065562;28;20236;-61
2022/02/21 00:45:40;;;;;;;4.32;2.20;;;;;;;2.55;74.40;98139.06;5065744;28;20143;-60
2022/02/21 00:48:05;;;;;;;4.40;2.28;;;;;;;2.57;74.26;98127.09;5066020;28;20342;-60
2022/02/21 00:50:31;;;;;;;4.55;2.10;;;;;;;2.54;73.56;98131.41;5065440;28;20241;-60
2022/02/21 00:52:57;;;;;;;5.40;2.33;;;;;;;2.48;74.61;98129.78;5065391;28;20036;-60
2022/02/21 00:55:22;;;;;;;5.25;2.22;;;;;;;2.52;73.98;98123.78;5065648;28;20025;-60
2022/02/21 00:57:48;;;;;;;4.65;2.20;;;;;;;2.53;73.70;98124.59;5065804;28;20044;-61
2022/02/21 01:00:14;;;;;;;3.85;2.08;;;;;;;2.38;74.46;98095.88;5065010;28;20033;-61
2022/02/21 01:02:40;;;;;;;3.90;2.10;;;;;;;2.56;74.64;98124.56;5065353;28;20082;-61
2022/02/21 01:05:06;;;;;;;3.47;2.20;;;;;;;2.57;74.56;98129.66;5065826;28;20044;-61
2022/02/21 01:07:32;;;;;;;3.72;2.20;;;;;;;2.49;74.31;98122.97;5065607;28;20071;-61
2022/02/21 01:09:57;;;;;;;4.53;2.10;;;;;;;2.56;74.71;98125.38;5065147;28;20017;-61
2022/02/21 01:12:23;;;;;;;5.82;2.28;;;;;;;2.59;74.85;98117.72;5065611;28;20041;-61
2022/02/21 01:14:49;;;;;;;4.63;2.10;;;;;;;2.63;74.29;98115.09;5065287;28;20096;-61
2022/02/21 01:17:14;;;;;;;4.10;2.20;;;;;;;2.56;74.13;98110.06;5065333;28;20213;-62
2022/02/21 01:19:40;;;;;;;3.65;2.05;;;;;;;2.34;74.53;98094.22;5065260;28;20044;-61
2022/02/21 01:22:07;;;;;;;3.67;2.08;;;;;;;2.44;73.91;98102.59;5064866;28;20025;-61
2022/02/21 01:24:33;;;;;;;7.00;2.53;;;;;;;2.52;74.40;98098.22;5064653;28;20077;-62
2022/02/21 01:26:59;;;;;;;4.57;1.88;;;;;;;2.57;73.77;98093.88;5064574;28;20033;-61
2022/02/21 01:29:24;;;;;;;6.28;2.40;;;;;;;2.54;73.36;98090.53;5064309;28;20028;-61
2022/02/21 01:31:50;;;;;;;4.82;1.75;;;;;;;2.61;73.91;98089.56;5064792;28;20037;-61
2022/02/21 01:34:15;;;;;;;5.53;2.35;;;;;;;2.61;73.67;98091.25;5064416;28;20017;-60
2022/02/21 01:36:41;;;;;;;5.43;2.10;;;;;;;2.61;73.81;98087.00;5063498;28;20214;-61
2022/02/21 01:39:09;;;;;;;4.32;2.45;;;;;;;2.60;73.67;98085.31;5064463;28;20221;-61
2022/02/21 01:41:35;;;;;;;4.53;2.40;;;;;;;2.55;73.65;98076.88;5063365;28;20028;-62
2022/02/21 01:44:04;;;;;;;5.60;2.35;;;;;;;2.63;73.80;98092.09;5063162;28;20025;-61
2022/02/21 01:46:29;;;;;;;3.78;2.28;;;;;;;2.61;74.07;98079.34;5061590;28;20017;-62
2022/02/21 01:48:55;;;;;;;3.33;1.90;;;;;;;2.70;74.05;98091.97;5056751;28;20033;-61
2022/02/21 01:51:21;;;;;;;5.32;2.15;;;;;;;2.65;73.43;98090.34;5064062;28;20090;-61
2022/02/21 01:53:46;;;;;;;5.00;2.40;;;;;;;2.58;74.19;98085.34;5064708;28;20092;-61
2022/02/21 01:56:12;;;;;;;4.95;2.42;;;;;;;2.70;73.47;98086.03;5062621;28;20025;-60
2022/02/21 01:58:37;;;;;;;4.47;2.22;;;;;;;2.66;73.75;98081.81;5064151;28;20025;-61
2022/02/21 02:01:03;;;;;;;3.90;2.40;;;;;;;2.71;73.59;98077.50;5062193;28;20048;-60
2022/02/21 02:03:28;;;;;;;6.60;2.30;;;;;;;2.71;73.93;98077.50;5063403;28;20070;-60
2022/02/21 02:05:54;;;;;;;5.05;2.67;;;;;;;2.74;73.88;98080.84;5063776;28;20028;-61
2022/02/21 02:08:20;;;;;;;6.03;2.17;;;;;;;2.70;73.70;98078.34;5061722;28;20017;-60
2022/02/21 02:10:46;;;;;;;4.65;2.50;;;;;;;2.51;73.85;98076.09;5062412;28;20186;-64
2022/02/21 02:13:11;;;;;;;7.88;2.60;;;;;;;2.55;73.52;98092.19;5063378;28;20044;-64
2022/02/21 02:15:37;;;;;;;7.05;2.35;;;;;;;2.58;74.43;98084.50;5063312;28;20039;-64
2022/02/21 02:18:02;;;;;;;7.65;2.50;;;;;;;2.64;74.06;98083.56;5063924;28;20217;-64
2022/02/21 02:20:28;;;;;;;3.67;2.20;;;;;;;2.53;74.65;98065.84;5062527;28;20025;-64
2022/02/21 02:22:54;;;;;;;3.83;2.38;;;;;;;2.61;73.77;98083.59;5063683;28;20505;-64
2022/02/21 02:25:19;;;;;;;5.55;2.40;;;;;;;2.59;74.20;98079.38;5062124;28;20227;-67
2022/02/21 02:27:46;;;;;;;4.05;2.15;;;;;;;2.63;74.30;98081.88;5062858;28;20091;-64
2022/02/21 02:30:11;;;;;;;4.80;2.50;;;;;;;2.69;74.45;98074.94;5063070;28;20048;-63
2022/02/21 02:32:38;;;;;;;9.73;2.97;;;;;;;2.68;73.42;98077.53;5063602;28;20029;-63
2022/02/21 02:35:04;;;;;;;6.82;2.47;;;;;;;2.67;74.13;98081.81;5061232;28;20032;-64
2022/02/21 02:37:30;;;;;;;6.55;2.45;;;;;;;2.45;73.52;98076.16;5063913;28;20348;-64
2022/02/21 02:39:57;;;;;;;4.63;2.22;;;;;;;2.36;74.03;98060.97;5063545;28;20025;-66
2022/02/21 02:42:23;;;;;;;6.20;2.40;;;;;;;2.40;74.88;98072.84;5062474;28;20036;-65
2022/02/21 02:44:49;;;;;;;5.13;2.50;;;;;;;2.20;74.95;98073.13;5063315;28;20021;-64
2022/02/21 02:47:16;;;;;;;5.45;2.65;;;;;;;2.40;74.84;98070.28;5062972;28;20357;-62
2022/02/21 02:49:42;;;;;;;5.05;2.35;;;;;;;2.39;74.89;98061.78;5061983;28;20033;-63
2022/02/21 02:52:08;;;;;;;6.40;2.30;;;;;;;2.46;75.37;98061.69;5054989;28;20225;-63
2022/02/21 02:54:34;;;;;;;5.07;2.65;;;;;;;2.13;74.62;98012.81;5061722;28;20036;-64
2022/02/21 02:57:00;;;;;;;4.72;2.42;;;;;;;2.47;75.20;98053.16;5062369;28;20025;-64
2022/02/21 02:59:26;;;;;;;5.38;2.60;;;;;;;2.28;74.96;98061.09;5063262;28;20099;-63
2022/02/21 03:01:52;;;;;;;3.75;2.33;;;;;;;2.41;74.94;98060.06;5062281;28;20036;-63
2022/02/21 03:04:19;;;;;;;3.67;2.40;;;;;;;2.53;75.12;98066.66;5063283;28;20446;-64
2022/02/21 03:06:44;;;;;;;7.18;2.88;;;;;;;2.44;74.12;98061.72;5063178;28;20108;-64
2022/02/21 03:09:10;;;;;;;4.93;2.63;;;;;;;2.29;74.70;98039.78;5062582;28;20043;-63
2022/02/21 03:11:36;;;;;;;8.82;2.80;;;;;;;2.39;74.68;98048.16;5061491;28;20313;-63
2022/02/21 03:14:03;;;;;;;5.82;2.92;;;;;;;2.41;74.03;98054.09;5061236;28;20033;-64
2022/02/21 03:16:29;;;;;;;6.90;2.90;;;;;;;2.37;74.41;98037.97;5062292;28;20082;-63
2022/02/21 03:18:54;;;;;;;6.60;2.72;;;;;;;2.38;74.91;98046.47;5062661;28;20317;-63
2022/02/21 03:21:21;;;;;;;5.13;2.72;;;;;;;2.39;74.90;98056.69;5062442;28;20035;-63
2022/02/21 03:23:47;;;;;;;5.25;2.80;;;;;;;2.30;74.68;98053.41;5062299;28;20040;-62
2022/02/21 03:26:12;;;;;;;5.13;2.55;;;;;;;2.43;74.48;98054.91;5062203;28;20230;-62
2022/02/21 03:28:38;;;;;;;6.10;3.00;;;;;;;2.44;74.65;98050.63;5062264;28;20020;-63
2022/02/21 03:31:04;;;;;;;4.43;2.47;;;;;;;2.29;74.79;98044.06;5061953;28;20029;-62
2022/02/21 03:33:29;;;;;;;5.80;2.83;;;;;;;2.40;75.02;98047.31;5062718;28;20056;-62
2022/02/21 03:35:55;;;;;;;4.20;2.97;;;;;;;2.44;74.19;98064.28;5062358;28;20025;-62
2022/02/21 03:38:20;;;;;;;4.82;2.60;;;;;;;2.46;74.73;98052.31;5062361;28;20032;-62
2022/02/21 03:40:47;;;;;;;5.07;2.63;;;;;;;2.46;74.72;98042.09;5062007;28;20028;-63
2022/02/21 03:43:13;;;;;;;4.50;2.47;;;;;;;2.40;74.41;98048.13;5062557;28;20214;-63
2022/02/21 03:45:38;;;;;;;4.60;2.90;;;;;;;2.58;74.62;98056.41;5061452;28;20055;-63
2022/02/21 03:48:05;;;;;;;6.95;2.80;;;;;;;2.42;74.28;98045.56;5061860;28;20108;-62
2022/02/21 03:50:30;;;;;;;5.10;2.50;;;;;;;2.31;75.18;98049.97;5061550;28;20025;-62
2022/02/21 03:52:56;;;;;;;9.15;3.53;;;;;;;2.36;74.67;98051.59;5062136;28;20062;-62
2022/02/21 03:55:22;;;;;;;5.10;2.53;;;;;;;2.48;74.89;98050.59;5062200;28;20036;-61
2022/02/21 03:57:48;;;;;;;4.85;2.97;;;;;;;2.29;75.27;98050.00;5061899;28;20041;-61
2022/02/21 04:00:15;;;;;;;5.68;2.60;;;;;;;2.04;74.78;97999.31;5061710;28;20090;-62
2022/02/21 04:02:41;;;;;;;7.80;2.50;;;;;;;2.36;75.42;98056.72;5061598;28;20074;-62
2022/02/21 04:05:08;;;;;;;8.05;3.08;;;;;;;2.40;74.81;98050.69;5061765;28;20055;-63
2022/02/21 04:07:34;;;;;;;5.47;2.95;;;;;;;2.32;74.91;98056.78;5053342;28;20084;-63
2022/02/21 04:10:00;;;;;;;7.30;3.00;;;;;;;2.39;74.77;98055.81;5060775;28;20029;-63
2022/02/21 04:12:26;;;;;;;5.93;3.03;;;;;;;2.38;75.28;98049.03;5063132;28;20017;-62
2022/02/21 04:14:52;;;;;;;5.43;2.85;;;;;;;2.24;74.98;98044.97;5060357;28;20035;-63
2022/02/21 04:17:17;;;;;;;5.63;2.65;;;;;;;2.36;75.44;98045.66;5060702;28;20109;-62
2022/02/21 04:19:46;;;;;;;5.68;3.08;;;;;;;2.29;75.29;98049.16;5062046;28;20021;-63
2022/02/21 04:22:13;;;;;;;6.13;3.08;;;;;;;2.41;74.61;98041.34;5061363;28;20036;-63
2022/02/21 04:24:39;;;;;;;6.70;3.03;;;;;;;2.39;74.94;98048.16;5061292;28;20103;-63
2022/02/21 04:27:05;;;;;;;5.13;3.17;;;;;;;2.32;74.67;98041.47;5061473;28;20089;-63
2022/02/21 04:29:31;;;;;;;7.95;2.95;;;;;;;2.50;74.61;98043.72;5062144;28;20028;-63
2022/02/21 04:31:57;;;;;;;6.13;3.20;;;;;;;2.44;74.78;98043.84;5061360;28;20248;-63
2022/02/21 04:34:22;;;;;;;4.85;3.03;;;;;;;2.47;74.66;98048.06;5061675;28;20029;-63
2022/02/21 04:36:48;;;;;;;10.25;3.20;;;;;;;2.27;74.38;98010.88;5061688;28;20063;-61
2022/02/21 04:39:13;;;;;;;4.78;3.10;;;;;;;2.48;74.64;98050.59;5061519;28;20032;-61
2022/02/21 04:41:39;;;;;;;9.25;3.42;;;;;;;2.46;74.42;98039.53;5061596;28;20316;-63
2022/02/21 04:44:05;;;;;;;5.35;3.15;;;;;;;2.50;74.49;98048.84;5061877;28;20025;-63
2022/02/21 04:46:31;;;;;;;5.80;3.38;;;;;;;2.55;74.38;98056.44;5061601;28;20201;-64
2022/02/21 04:48:56;;;;;;;7.00;3.65;;;;;;;2.57;75.03;98052.16;5061123;28;20249;-63
2022/02/21 04:51:22;;;;;;;6.18;3.58;;;;;;;2.40;74.92;98052.41;5060985;28;20025;-64
2022/02/21 04:53:48;;;;;;;6.97;3.67;;;;;;;2.31;75.03;98052.53;5061002;28;20119;-64
2022/02/21 04:56:13;;;;;;;6.90;2.72;;;;;;;2.39;75.15;98046.47;5061251;28;20024;-62
2022/02/21 04:58:39;;;;;;;10.85;3.47;;;;;;;2.25;75.04;98048.34;5061279;28;20044;-62
2022/02/21 05:01:05;;;;;;;4.85;3.50;;;;;;;2.19;75.68;98049.28;5060889;28;20131;-63
2022/02/21 05:03:30;;;;;;;6.13;3.30;;;;;;;2.34;75.58;98050.78;5060970;28;20052;-61
2022/02/21 05:05:56;;;;;;;8.73;3.90;;;;;;;2.27;75.99;98045.78;5061375;28;20044;-62
2022/02/21 05:08:21;;;;;;;6.47;3.47;;;;;;;2.28;75.85;98050.03;5060999;28;20052;-62
2022/02/21 05:10:47;;;;;;;8.07;3.55;;;;;;;2.38;76.13;98051.56;5061371;28;20029;-62
2022/02/21 05:13:12;;;;;;;5.35;3.55;;;;;;;2.39;75.85;98050.72;5061140;28;20048;-62
2022/02/21 05:15:38;;;;;;;7.53;3.60;;;;;;;2.57;76.08;98054.72;5061390;28;20025;-63
2022/02/21 05:18:04;;;;;;;7.80;3.67;;;;;;;2.52;76.68;98051.38;5061582;28;20372;-62
2022/02/21 05:20:29;;;;;;;6.63;3.65;;;;;;;2.38;75.48;98041.34;5064416;28;20032;-62
2022/02/21 05:22:55;;;;;;;8.07;3.75;;;;;;;2.40;76.49;98048.13;5065125;28;20099;-63
2022/02/21 05:25:20;;;;;;;5.57;3.60;;;;;;;2.37;76.29;98058.41;5064841;28;20025;-62
2022/02/21 05:27:46;;;;;;;6.57;3.65;;;;;;;2.36;76.52;98055.88;5064901;28;20047;-62
2022/02/21 05:30:13;;;;;;;8.52;4.00;;;;;;;2.20;76.23;98056.09;5064865;28;20127;-62
2022/02/21 05:32:39;;;;;;;6.05;3.40;;;;;;;2.20;76.17;98050.16;5064047;28;20108;-62
2022/02/21 05:35:05;;;;;;;6.70;3.88;;;;;;;2.19;76.92;98064.59;5063568;28;20037;-63
2022/02/21 05:37:31;;;;;;;6.20;3.35;;;;;;;2.20;77.11;98068.88;5064543;28;20048;-62
2022/02/21 05:39:56;;;;;;;7.57;4.25;;;;;;;2.30;77.03;98063.63;5064729;28;20039;-62
2022/02/21 05:42:22;;;;;;;9.15;4.05;;;;;;;2.32;77.15;98067.84;5064395;28;20025;-62
2022/02/21 05:44:48;;;;;;;6.57;3.80;;;;;;;2.26;76.71;98062.00;5064602;28;20032;-62
2022/02/21 05:47:13;;;;;;;6.85;4.38;;;;;;;2.28;77.13;98073.00;5063395;28;20032;-63
2022/02/21 05:49:39;;;;;;;6.80;4.00;;;;;;;2.31;76.86;98067.84;5064147;28;20036;-63
2022/02/21 05:52:05;;;;;;;8.77;4.40;;;;;;;2.14;77.29;98070.66;5064104;28;20036;-63
2022/02/21 05:54:31;;;;;;;7.40;5.00;;;;;;;2.18;77.92;98072.28;5064269;28;20031;-63
2022/02/21 05:56:57;;;;;;;6.57;4.25;;;;;;;2.13;77.68;98056.22;5064294;28;20025;-63
2022/02/21 05:59:23;;;;;;;7.25;4.15;;;;;;;2.24;78.07;98062.84;5063151;28;20032;-64
2022/02/21 06:01:49;;;;;;;7.45;4.28;;;;;;;2.15;78.45;98075.75;5064163;28;20217;-64
2022/02/21 06:04:15;;;;;;;6.10;3.65;;;;;;;2.21;77.93;98062.91;5063656;28;20037;-63
2022/02/21 06:06:41;;;;;;;7.45;3.80;;;;;;;1.95;78.03;98022.41;5064428;28;20025;-63
2022/02/21 06:09:07;;;;;;;6.25;3.90;;;;;;;2.19;78.01;98074.81;5061148;28;20029;-65
2022/02/21 06:11:34;;;;;;;4.55;3.72;;;;;;;2.31;78.42;98068.72;5064050;28;20056;-62
2022/02/21 06:14:00;;;;;;;6.13;3.67;;;;;;;2.33;78.15;98071.25;5063611;28;20344;-62
2022/02/21 06:16:26;;;;;;;8.18;4.65;;;;;;;2.27;77.67;98064.53;5064050;28;20025;-62
2022/02/21 06:18:51;;;;;;;10.45;4.45;;;;;;;2.40;78.12;98067.75;5063739;28;20048;-63
2022/02/21 06:21:17;;;;;;;8.23;4.20;;;;;;;2.44;77.84;98060.84;5062779;28;20086;-64
2022/02/21 06:23:42;;;;;;;12.52;4.30;;;;;;;2.41;77.66;98072.00;5063777;28;20059;-63
2022/02/21 06:26:08;;;;;;;7.82;3.97;;;;;;;2.48;77.83;98072.72;5063236;28;20364;-62
2022/02/21 06:28:34;;;;;;;5.78;3.97;;;;;;;2.47;77.30;98079.56;5063439;28;20313;-62
2022/02/21 06:31:00;;;;;;;6.80;4.03;;;;;;;2.46;77.18;98071.91;5062507;28;20056;-63
2022/02/21 06:33:26;;;;;;;8.77;4.78;;;;;;;2.37;76.86;98078.84;5062915;28;20029;-63
2022/02/21 06:35:52;;;;;;;7.25;4.20;;;;;;;2.55;76.62;98074.31;5063362;28;20017;-63
2022/02/21 06:38:18;;;;;;;18.33;10.52;;;;;;;2.63;76.72;98064.00;5062608;28;20029;-63
2022/02/21 06:40:44;;;;;;;8.20;4.88;;;;;;;2.63;76.57;98074.22;5063110;28;20052;-63
2022/02/21 06:43:10;;;;;;;9.02;4.55;;;;;;;2.64;77.16;98081.84;5061602;28;20035;-63
2022/02/21 06:45:36;;;;;;;11.38;4.32;;;;;;;2.67;77.13;98070.75;5062846;28;20016;-64
2022/02/21 06:48:03;;;;;;;7.68;3.85;;;;;;;2.63;75.79;98081.88;5062184;28;20028;-63
2022/02/21 06:50:28;;;;;;;5.75;4.30;;;;;;;2.68;76.36;98067.28;5062158;28;20496;-63
2022/02/21 06:52:54;;;;;;;8.75;4.10;;;;;;;2.78;76.31;98076.53;5059831;28;20072;-63
2022/02/21 06:55:20;;;;;;;7.13;4.35;;;;;;;2.76;76.61;98078.25;5060625;28;20029;-63
2022/02/21 06:57:48;;;;;;;8.65;4.05;;;;;;;2.80;75.80;98073.94;5062136;28;20105;-63
2022/02/21 07:00:15;;;;;;;6.05;4.05;;;;;;;2.81;75.95;98073.91;5063296;28;20088;-63
2022/02/21 07:02:41;;;;;;;6.68;4.30;;;;;;;2.87;76.36;98076.38;5062220;28;20017;-63
2022/02/21 07:05:08;;;;;;;6.70;4.32;;;;;;;2.85;74.75;98073.00;5060840;28;20233;-62
2022/02/21 07:07:34;;;;;;;5.07;4.05;;;;;;;2.46;75.52;98067.63;5061695;28;20048;-63
2022/02/21 07:10:01;;;;;;;7.97;4.95;;;;;;;2.61;75.60;98075.94;5062407;28;20246;-62
2022/02/21 07:12:28;;;;;;;6.47;3.88;;;;;;;2.71;76.46;98080.06;5062784;28;20376;-63
2022/02/21 07:14:54;;;;;;;6.68;3.88;;;;;;;2.88;75.40;98075.50;5044664;28;20206;-63
2022/02/21 07:17:20;;;;;;;7.75;4.25;;;;;;;2.98;75.64;98070.22;5062410;28;20021;-63
2022/02/21 07:19:46;;;;;;;8.73;4.30;;;;;;;2.97;75.47;98083.91;5044635;28;20032;-64
2022/02/21 07:22:12;;;;;;;7.63;4.13;;;;;;;2.77;74.76;98085.06;5060990;28;20032;-65
2022/02/21 07:24:38;;;;;;;6.93;3.72;;;;;;;2.57;75.72;98077.72;5062260;28;20036;-63
2022/02/21 07:27:04;;;;;;;6.40;4.30;;;;;;;2.75;75.73;98074.88;5061805;28;20071;-62
2022/02/21 07:29:31;;;;;;;9.32;4.05;;;;;;;2.72;74.89;98074.91;5061904;28;20466;-60
2022/02/21 07:31:57;;;;;;;6.30;4.40;;;;;;;2.78;75.00;98078.22;5062186;28;20035;-61
2022/02/21 07:34:23;;;;;;;8.73;4.10;;;;;;;2.87;75.88;98089.16;5062189;28;20025;-64
2022/02/21 07:36:48;;;;;;;11.32;4.38;;;;;;;2.85;74.96;98079.81;5061778;28;20068;-64
2022/02/21 07:39:14;;;;;;;10.13;5.75;;;;;;;2.73;75.13;98079.13;5061472;28;20124;-64
2022/02/21 07:41:40;;;;;;;9.18;5.20;;;;;;;2.90;75.71;98078.03;5061401;28;20033;-65
2022/02/21 07:44:06;;;;;;;12.15;4.47;;;;;;;2.72;75.05;98076.59;5061824;28;20029;-63
2022/02/21 07:46:32;;;;;;;7.13;4.40;;;;;;;2.87;75.57;98078.91;5061794;28;20028;-63
2022/02/21 07:48:57;;;;;;;11.55;4.50;;;;;;;3.05;75.86;98087.13;5062017;28;20065;-63
2022/02/21 07:51:23;;;;;;;7.18;3.80;;;;;;;2.94;74.32;98077.13;5061754;28;20029;-64
2022/02/21 07:53:48;;;;;;;5.38;4.05;;;;;;;2.93;74.82;98083.91;5062093;28;20025;-64
2022/02/21 07:56:14;;;;;;;8.80;4.38;;;;;;;3.01;75.55;98080.41;5060848;28;20101;-63
2022/02/21 07:58:40;;;;;;;7.90;4.63;;;;;;;3.07;74.66;98077.75;5061694;28;20021;-63
2022/02/21 08:01:05;;;;;;;19.23;12.70;;;;;;;3.13;75.29;98084.47;5061295;28;20029;-61
2022/02/21 08:03:31;;;;;;;9.02;5.10;;;;;;;3.20;74.08;98091.16;5061374;28;20055;-62
2022/02/21 08:05:57;;;;;;;7.30;5.07;;;;;;;3.05;74.03;98092.25;5061631;28;20253;-60
2022/02/21 08:08:22;;;;;;;8.32;4.70;;;;;;;3.10;74.40;98088.75;5060871;28;20033;-58
2022/02/21 08:10:48;;;;;;;7.53;4.85;;;;;;;3.20;74.69;98089.44;5061550;28;20097;-61
2022/02/21 08:13:14;;;;;;;10.63;4.78;;;;;;;3.12;74.43;98088.72;5060653;28;20033;-63
2022/02/21 08:15:40;;;;;;;6.85;4.28;;;;;;;3.13;73.70;98089.59;5060481;28;20028;-62
2022/02/21 08:18:05;;;;;;;12.65;4.80;;;;;;;3.23;73.07;98091.94;5061519;28;20067;-64
2022/02/21 08:20:31;;;;;;;7.25;4.65;;;;;;;3.25;74.19;98087.66;5061425;28;20341;-63
2022/02/21 08:22:57;;;;;;;7.35;4.55;;;;;;;3.20;73.21;98084.31;5060776;28;20020;-64
2022/02/21 08:25:23;;;;;;;8.65;4.57;;;;;;;3.19;73.28;98080.09;5061810;28;20096;-63
2022/02/21 08:27:51;;;;;;;5.90;3.88;;;;;;;2.91;72.81;98038.81;5062190;28;20153;-63
2022/02/21 08:30:19;;;;;;;6.30;4.35;;;;;;;2.82;72.50;98033.84;5061290;28;20020;-65
2022/02/21 08:32:46;;;;;;;10.82;4.72;;;;;;;3.10;72.29;98090.47;5061330;28;20090;-65
2022/02/21 08:35:12;;;;;;;7.18;4.50;;;;;;;3.26;71.73;98088.47;5061447;28;20040;-65
2022/02/21 08:37:39;;;;;;;9.88;4.18;;;;;;;3.16;72.17;98082.69;5061053;28;20086;-65
2022/02/21 08:40:06;;;;;;;6.45;4.07;;;;;;;3.14;72.19;98071.66;5061037;28;20021;-64
2022/02/21 08:42:32;;;;;;;6.30;4.40;;;;;;;3.23;71.87;98089.38;5060986;28;20087;-64
2022/02/21 08:44:59;;;;;;;7.00;4.05;;;;;;;3.25;72.29;98079.97;5061046;28;20037;-61
2022/02/21 08:47:25;;;;;;;10.35;4.60;;;;;;;3.22;71.69;98085.16;5061034;28;20416;-61
2022/02/21 08:49:51;;;;;;;7.63;4.45;;;;;;;3.40;72.09;98085.69;5058097;28;20033;-61
2022/02/21 08:52:17;;;;;;;8.73;4.68;;;;;;;3.31;71.71;98091.81;5060460;28;20274;-62
2022/02/21 08:54:43;;;;;;;9.50;5.10;;;;;;;3.28;72.01;98094.44;5062020;28;20037;-62
2022/02/21 08:57:09;;;;;;;7.68;4.50;;;;;;;3.44;72.27;98092.44;5043546;28;20021;-62
2022/02/21 08:59:35;;;;;;;6.95;4.13;;;;;;;3.38;71.51;98095.13;5060358;28;20029;-62
2022/02/21 09:02:01;;;;;;;5.85;4.47;;;;;;;3.48;72.05;98090.66;5065026;28;20056;-61
2022/02/21 09:04:27;;;;;;;6.97;4.50;;;;;;;3.39;72.09;98095.09;5065064;28;20341;-62
2022/02/21 09:06:52;;;;;;;6.35;4.60;;;;;;;3.40;71.21;98096.75;5065389;28;20037;-62
2022/02/21 09:09:18;;;;;;;8.73;4.32;;;;;;;3.30;71.73;98094.41;5053560;28;20048;-62
2022/02/21 09:11:45;;;;;;;6.35;4.45;;;;;;;3.22;71.20;98085.16;5065271;28;20052;-63
2022/02/21 09:14:11;;;;;;;6.60;4.40;;;;;;;3.38;71.63;98095.13;5046332;28;20075;-62
2022/02/21 09:16:36;;;;;;;9.07;4.95;;;;;;;3.50;71.04;98110.22;5065394;28;20032;-62
2022/02/21 09:19:02;;;;;;;7.13;4.13;;;;;;;3.57;70.78;98105.84;5065143;28;20032;-62
2022/02/21 09:21:28;;;;;;;5.75;4.28;;;;;;;3.49;71.37;98111.09;5054055;28;20159;-63
2022/02/21 09:23:54;;;;;;;6.93;4.03;;;;;;;3.30;70.50;98107.19;5063845;28;20025;-63
2022/02/21 09:26:19;;;;;;;5.70;4.20;;;;;;;3.50;70.34;98107.66;5065208;28;20313;-63
2022/02/21 09:28:45;;;;;;;8.23;4.28;;;;;;;3.64;70.76;98112.53;5064112;28;20067;-64
2022/02/21 09:31:11;;;;;;;8.20;4.30;;;;;;;3.37;70.06;98119.00;5064644;28;20210;-64
2022/02/21 09:33:37;;;;;;;7.30;3.90;;;;;;;3.20;69.57;98112.47;5064710;28;20033;-63
2022/02/21 09:36:03;;;;;;;4.40;3.22;;;;;;;3.44;69.37;98123.97;5056429;28;20036;-61
2022/02/21 09:38:28;;;;;;;4.63;3.58;;;;;;;3.47;68.74;98109.44;5047253;28;20033;-62
2022/02/21 09:40:56;;;;;;;6.55;3.85;;;;;;;3.45;68.53;98122.28;5063850;28;20210;-63
2022/02/21 09:43:27;;;;;;;6.45;3.88;;;;;;;3.47;68.88;98112.00;5056903;28;20049;-62
2022/02/21 09:46:07;;;;;;;5.07;3.90;;;;;;;3.66;68.81;98122.75;5063846;28;20309;-62
2022/02/21 09:48:39;;;;;;;6.30;3.70;;;;;;;3.41;68.70;98103.56;5064185;28;20041;-62
2022/02/21 09:51:06;;;;;;;15.48;8.52;;;;;;;3.61;69.22;98097.25;5064276;28;20119;-62
2022/02/21 09:53:37;;;;;;;6.55;4.07;;;;;;;3.39;68.89;98053.28;5064426;28;20088;-62
2022/02/21 09:56:04;;;;;;;5.38;3.75;;;;;;;3.89;68.70;98105.22;5064499;28;20029;-62
2022/02/21 09:58:31;;;;;;;5.97;3.70;;;;;;;4.01;68.53;98095.59;5064261;28;20033;-61
2022/02/21 10:00:58;;;;;;;4.43;3.40;;;;;;;4.05;67.25;98100.63;5064489;28;20021;-62
2022/02/21 10:03:57;;;;;;;6.75;4.30;;;;;;;3.98;66.12;98097.34;5063063;28;20233;-63
2022/02/21 10:06:29;;;;;;;6.25;3.40;;;;;;;3.79;66.26;98034.56;5057858;28;20364;-63
2022/02/21 10:09:07;;;;;;;10.35;6.82;;;;;;;4.17;67.16;98088.44;5057964;28;20209;-64
2022/02/21 10:11:40;;;;;;;5.25;3.75;;;;;;;4.01;66.03;98040.09;5064199;28;20278;-64
2022/02/21 10:14:19;;;;;;;8.50;4.60;;;;;;;3.82;65.58;98036.22;5064028;28;20051;-64
2022/02/21 10:17:09;;;;;;;7.93;4.53;;;;;;;3.98;65.95;98079.41;5064210;28;20234;-63
2022/02/21 10:19:41;;;;;;;5.03;3.85;;;;;;;4.25;65.87;98073.75;5062503;28;20095;-63
2022/02/21 10:22:11;;;;;;;10.13;4.72;;;;;;;4.15;66.15;98075.66;5063796;28;20062;-62
2022/02/21 10:24:49;;;;;;;5.20;4.30;;;;;;;4.24;65.90;98072.03;5064053;28;20036;-65
2022/02/21 10:27:21;;;;;;;9.68;4.88;;;;;;;3.92;67.41;98046.25;5047986;28;20043;-63
2022/02/21 10:29:49;;;;;;;;;;;;;;;4.17;66.72;98078.19;5064625;28;20032;-63
2022/02/21 10:32:18;;;;;;;7.00;4.45;;;;;;;4.06;67.04;98093.78;5063096;28;20243;-63
2022/02/21 10:34:45;;;;;;;9.38;5.22;;;;;;;4.13;67.20;98070.56;5063845;28;20224;-63
2022/02/21 10:37:19;;;;;;;10.63;5.65;;;;;;;4.22;67.12;98064.41;5063748;28;20024;-63
2022/02/21 10:39:45;;;;;;;7.90;4.38;;;;;;;4.38;67.03;98059.75;5063970;28;20036;-63
2022/02/21 10:42:11;;;;;;;7.13;5.07;;;;;;;4.12;66.47;98068.88;5063638;28;20100;-62
2022/02/21 10:44:39;;;;;;;8.63;5.13;;;;;;;3.57;66.92;98011.16;5063365;28;20092;-63
2022/02/21 10:47:08;;;;;;;6.28;4.28;;;;;;;4.04;67.47;98069.91;5063796;28;20074;-63
2022/02/21 10:49:38;;;;;;;7.57;4.68;;;;;;;3.60;66.90;97998.28;5062111;28;20025;-63
2022/02/21 10:52:05;;;;;;;5.60;4.60;;;;;;;3.89;66.98;98050.59;5063573;28;20082;-62
2022/02/21 10:54:36;;;;;;;8.18;5.03;;;;;;;3.89;67.63;98051.44;5063357;28;20021;-64
2022/02/21 10:57:02;;;;;;;;;;;;;;;3.84;67.82;98048.13;5063955;28;20035;-63
2022/02/21 10:59:30;;;;;;;8.93;4.63;;;;;;;3.85;67.31;98047.25;5062901;28;19932;-64
2022/02/21 11:01:57;;;;;;;5.90;4.22;;;;;;;3.85;67.01;98054.94;5063431;28;20356;-62
2022/02/21 11:04:24;;;;;;;6.43;4.57;;;;;;;3.68;66.40;98046.75;5061268;28;20078;-63
2022/02/21 11:06:51;;;;;;;6.97;4.40;;;;;;;4.18;66.82;98056.81;5051346;28;20029;-61
2022/02/21 11:09:19;;;;;;;7.28;3.90;;;;;;;4.16;64.63;98054.25;5061344;28;20029;-65
2022/02/21 11:11:49;;;;;;;9.20;4.55;;;;;;;3.96;65.65;97985.56;5062658;28;20032;-63
2022/02/21 11:14:22;;;;;;;8.55;4.35;;;;;;;4.40;64.97;98044.34;5056238;28;20028;-63
2022/02/21 11:16:49;;;;;;;8.10;3.92;;;;;;;4.53;63.90;98042.34;5058146;28;20029;-63
2022/02/21 11:19:16;;;;;;;10.90;4.32;;;;;;;4.69;64.83;98042.81;5059741;28;20033;-64
2022/02/21 11:21:46;;;;;;;9.48;4.13;;;;;;;4.53;64.04;98052.59;5051419;28;20170;-63
2022/02/21 11:24:14;;;;;;;5.28;3.90;;;;;;;3.85;64.33;97990.06;5058172;28;20101;-63
2022/02/21 11:27:08;;;;;;;8.52;4.43;;;;;;;4.62;64.10;98042.13;5062921;28;20025;-63
2022/02/21 11:30:00;;;;;;;5.38;4.28;;;;;;;4.76;64.37;98042.63;5048641;28;20060;-63
2022/02/21 11:32:25;;;;;;;7.18;5.13;;;;;;;4.78;63.62;98042.59;5052280;28;20053;-63
2022/02/21 11:35:11;;;;;;;8.35;4.05;;;;;;;4.43;63.27;98051.97;5061805;28;20054;-63
2022/02/21 11:37:37;;;;;;;9.18;4.68;;;;;;;4.73;63.92;98044.41;5056703;28;20064;-63
2022/02/21 11:40:04;;;;;;;7.13;4.22;;;;;;;4.52;63.27;98045.78;5052958;28;20021;-64